Time;durP1;ratioP1;P1;durP2;ratioP2;P2;SDS_P1;SDS_P2;PMS_P1;PMS_P2;Temp;Humidity;BMP_temperature;BMP_pressure;BME280_temperature;BME280_humidity;BME280_pressure;Samples;Min_cycle;Max_cycle;Signal;HPM_P1;HPM_P2
2020/12/16 00:02:24;;;;;;;111.90;17.40;;;;;;;;;;5095045;28;20229;-81
2020/12/16 00:04:51;;;;;;;217.13;17.83;;;;;;;;;;5094751;28;20625;-81
2020/12/16 00:07:17;;;;;;;166.23;18.83;;;;;;;;;;5095067;28;20583;-80
2020/12/16 00:09:44;;;;;;;97.27;15.57;;;;;;;;;;5094694;28;20210;-80
2020/12/16 00:12:10;;;;;;;113.13;17.37;;;;;;;;;;5095062;28;20202;-82
2020/12/16 00:14:36;;;;;;;161.03;18.47;;;;;;;;;;5094705;28;20226;-81
2020/12/16 00:17:02;;;;;;;53.47;15.40;;;;;;;;;;5094897;28;20547;-81
2020/12/16 00:19:28;;;;;;;415.97;26.50;;;;;;;;;;5094324;28;20233;-81
2020/12/16 00:21:58;;;;;;;121.50;17.03;;;;;;;;;;5093584;28;20266;-79
2020/12/16 00:24:25;;;;;;;123.60;19.47;;;;;;;;;;5093588;28;20237;-80
2020/12/16 00:26:51;;;;;;;82.77;16.67;;;;;;;;;;5094532;28;20237;-81
2020/12/16 00:29:17;;;;;;;65.93;18.47;;;;;;;;;;5094738;28;20205;-81
2020/12/16 00:31:43;;;;;;;218.87;24.13;;;;;;;;;;5095123;28;20209;-82
2020/12/16 00:34:09;;;;;;;54.80;16.17;;;;;;;;;;5098166;28;20225;-81
2020/12/16 00:36:36;;;;;;;120.77;19.10;;;;;;;;;;5099003;28;20261;-81
2020/12/16 00:39:04;;;;;;;140.77;20.43;;;;;;;;;;5098324;28;20232;-82
2020/12/16 00:41:30;;;;;;;122.70;19.30;;;;;;;;;;5131322;27;20193;-81
2020/12/16 00:43:56;;;;;;;87.20;17.27;;;;;;;;;;5098866;28;20249;-81
2020/12/16 00:46:22;;;;;;;117.90;19.50;;;;;;;;;;5098916;28;20633;-81
2020/12/16 00:48:49;;;;;;;124.13;17.47;;;;;;;;;;5098828;28;20213;-81
2020/12/16 00:51:15;;;;;;;174.30;20.90;;;;;;;;;;5098709;28;20201;-82
2020/12/16 00:53:41;;;;;;;50.33;16.93;;;;;;;;;;5098499;28;20230;-82
2020/12/16 00:56:08;;;;;;;128.37;19.30;;;;;;;;;;5097281;28;20198;-81
2020/12/16 00:58:34;;;;;;;99.70;17.90;;;;;;;;;;5097913;28;20563;-81
2020/12/16 01:01:00;;;;;;;130.57;20.53;;;;;;;;;;5098398;28;20284;-81
2020/12/16 01:03:26;;;;;;;102.83;19.63;;;;;;;;;;5098284;28;20283;-82
2020/12/16 01:05:52;;;;;;;96.60;18.57;;;;;;;;;;5098523;28;20531;-82
2020/12/16 01:08:18;;;;;;;159.27;21.33;;;;;;;;;;5098380;28;20236;-81
2020/12/16 01:10:45;;;;;;;83.87;17.13;;;;;;;;;;5098491;28;20225;-82
2020/12/16 01:13:12;;;;;;;81.80;16.43;;;;;;;;;;5097782;28;20222;-81
2020/12/16 01:15:38;;;;;;;105.53;19.13;;;;;;;;;;5097972;28;20206;-81
2020/12/16 01:18:04;;;;;;;85.77;17.67;;;;;;;;;;5097736;28;20593;-80
2020/12/16 01:20:30;;;;;;;110.77;16.90;;;;;;;;;;5098455;28;20236;-80
2020/12/16 01:22:56;;;;;;;38.00;15.70;;;;;;;;;;5097567;28;20233;-81
2020/12/16 01:25:22;;;;;;;74.27;16.00;;;;;;;;;;5098204;28;20241;-81
2020/12/16 01:27:51;;;;;;;53.70;15.87;;;;;;;;;;5097202;28;20241;-81
2020/12/16 01:30:18;;;;;;;100.23;17.03;;;;;;;;;;5098115;28;20230;-81
2020/12/16 01:32:44;;;;;;;93.73;16.80;;;;;;;;;;5097055;28;20257;-81
2020/12/16 01:35:10;;;;;;;105.20;18.27;;;;;;;;;;5097686;28;20217;-81
2020/12/16 01:37:37;;;;;;;74.03;15.97;;;;;;;;;;5097590;28;20283;-82
2020/12/16 01:40:04;;;;;;;82.10;16.77;;;;;;;;;;5097847;28;20233;-81
2020/12/16 01:42:30;;;;;;;41.87;14.87;;;;;;;;;;5096920;28;20230;-81
2020/12/16 01:44:56;;;;;;;116.17;16.50;;;;;;;;;;5097317;28;20250;-81
2020/12/16 01:47:23;;;;;;;71.50;15.60;;;;;;;;;;5097597;28;20202;-81
2020/12/16 01:49:49;;;;;;;68.10;17.37;;;;;;;;;;5097129;28;20202;-82
2020/12/16 01:52:18;;;;;;;67.57;15.73;;;;;;;;;;5096949;28;20229;-81
2020/12/16 01:54:44;;;;;;;128.50;16.83;;;;;;;;;;5097174;28;20202;-81
2020/12/16 01:57:12;;;;;;;183.47;20.43;;;;;;;;;;5097032;28;20240;-81
2020/12/16 01:59:39;;;;;;;129.27;16.90;;;;;;;;;;5097506;28;20213;-82
2020/12/16 02:02:06;;;;;;;147.67;16.77;;;;;;;;;;5097402;28;20208;-81
2020/12/16 02:04:35;;;;;;;88.47;16.37;;;;;;;;;;5097295;28;20253;-81
2020/12/16 02:07:05;;;;;;;122.23;17.00;;;;;;;;;;5097174;28;20236;-81
2020/12/16 02:09:36;;;;;;;73.67;15.80;;;;;;;;;;5095628;28;20279;-81
2020/12/16 02:12:07;;;;;;;130.00;15.43;;;;;;;;;;5096946;28;20233;-81
2020/12/16 02:14:33;;;;;;;82.53;15.07;;;;;;;;;;5097253;28;20236;-81
2020/12/16 02:16:59;;;;;;;130.33;15.13;;;;;;;;;;5096762;28;20233;-81
2020/12/16 02:19:27;;;;;;;72.17;14.93;;;;;;;;;;5096050;28;20197;-80
2020/12/16 02:21:54;;;;;;;47.87;13.03;;;;;;;;;;5096669;28;20229;-81
2020/12/16 02:24:20;;;;;;;58.53;12.73;;;;;;;;;;5096825;28;20241;-82
2020/12/16 02:26:47;;;;;;;57.47;13.33;;;;;;;;;;5096606;28;20241;-81
2020/12/16 02:29:13;;;;;;;62.10;13.13;;;;;;;;;;5096871;28;20206;-81
2020/12/16 02:31:40;;;;;;;84.27;14.87;;;;;;;;;;5096481;28;20229;-81
2020/12/16 02:34:06;;;;;;;62.20;13.27;;;;;;;;;;5095975;28;20241;-81
2020/12/16 02:36:33;;;;;;;52.40;12.90;;;;;;;;;;5096584;28;20210;-81
2020/12/16 02:38:59;;;;;;;118.10;13.57;;;;;;;;;;5096691;28;20498;-81
2020/12/16 02:41:27;;;;;;;73.57;13.10;;;;;;;;;;5096489;28;20630;-81
2020/12/16 02:43:54;;;;;;;131.10;15.80;;;;;;;;;;5096481;28;20249;-81
2020/12/16 02:46:20;;;;;;;52.43;13.97;;;;;;;;;;5096335;28;20237;-81
2020/12/16 02:48:46;;;;;;;69.13;12.27;;;;;;;;;;5096350;28;20509;-81
2020/12/16 02:51:12;;;;;;;60.33;11.53;;;;;;;;;;5096337;28;20244;-81
2020/12/16 02:53:38;;;;;;;46.80;11.77;;;;;;;;;;5096269;28;20244;-81
2020/12/16 02:56:04;;;;;;;38.37;11.20;;;;;;;;;;5095290;28;20225;-81
2020/12/16 02:58:30;;;;;;;36.10;11.50;;;;;;;;;;5096030;28;20538;-81
2020/12/16 03:00:57;;;;;;;22.57;10.63;;;;;;;;;;5096001;28;20531;-81
2020/12/16 03:03:23;;;;;;;20.80;10.63;;;;;;;;;;5095358;28;20499;-81
2020/12/16 03:05:49;;;;;;;17.70;9.83;;;;;;;;;;5096007;28;20245;-81
2020/12/16 03:08:15;;;;;;;23.23;10.13;;;;;;;;;;5095780;28;20233;-81
2020/12/16 03:10:42;;;;;;;20.40;10.80;;;;;;;;;;5096090;28;20480;-81
2020/12/16 03:13:08;;;;;;;33.33;12.53;;;;;;;;;;5095542;28;20237;-81
2020/12/16 03:15:34;;;;;;;28.87;11.40;;;;;;;;;;5096041;28;20221;-81
2020/12/16 03:18:01;;;;;;;22.47;11.90;;;;;;;;;;5095182;28;20622;-82
2020/12/16 03:20:27;;;;;;;19.97;11.40;;;;;;;;;;5096090;28;20233;-81
2020/12/16 03:22:53;;;;;;;40.90;12.60;;;;;;;;;;5095729;28;20233;-81
2020/12/16 03:25:19;;;;;;;25.90;12.20;;;;;;;;;;5095744;28;20262;-81
2020/12/16 03:27:45;;;;;;;31.27;13.67;;;;;;;;;;5095679;28;20241;-81
2020/12/16 03:30:11;;;;;;;22.17;12.70;;;;;;;;;;5094456;28;20286;-82
2020/12/16 03:32:37;;;;;;;25.50;12.57;;;;;;;;;;5095107;28;20249;-81
2020/12/16 03:35:04;;;;;;;22.47;12.83;;;;;;;;;;5095587;28;20232;-82
2020/12/16 03:37:30;;;;;;;32.27;13.17;;;;;;;;;;5095553;28;20225;-81
2020/12/16 03:39:57;;;;;;;19.30;11.50;;;;;;;;;;5095511;28;20256;-82
2020/12/16 03:42:23;;;;;;;23.20;12.33;;;;;;;;;;5095419;28;20651;-81
2020/12/16 03:44:49;;;;;;;23.80;12.80;;;;;;;;;;5095362;28;20244;-82
2020/12/16 03:47:15;;;;;;;23.80;12.67;;;;;;;;;;5095401;28;20233;-82
2020/12/16 03:49:41;;;;;;;24.50;13.07;;;;;;;;;;5095308;28;20229;-82
2020/12/16 03:52:08;;;;;;;24.63;12.17;;;;;;;;;;5095424;28;20645;-81
2020/12/16 03:54:34;;;;;;;27.97;12.70;;;;;;;;;;5095300;28;20209;-81
2020/12/16 03:57:00;;;;;;;24.97;12.23;;;;;;;;;;5095044;28;20263;-81
2020/12/16 03:59:26;;;;;;;24.23;12.80;;;;;;;;;;5095464;28;20229;-81
2020/12/16 04:01:52;;;;;;;22.30;12.43;;;;;;;;;;5095063;28;20267;-81
2020/12/16 04:04:19;;;;;;;29.17;12.53;;;;;;;;;;5095164;28;20575;-81
2020/12/16 04:06:45;;;;;;;19.20;11.80;;;;;;;;;;5094729;28;20228;-81
2020/12/16 04:09:12;;;;;;;18.67;11.70;;;;;;;;;;5094980;28;20232;-81
2020/12/16 04:11:38;;;;;;;18.80;12.00;;;;;;;;;;5093315;28;20243;-81
2020/12/16 04:14:04;;;;;;;22.73;12.47;;;;;;;;;;5093839;28;20628;-81
2020/12/16 04:16:31;;;;;;;20.17;12.10;;;;;;;;;;5094499;28;20241;-81
2020/12/16 04:18:57;;;;;;;18.63;11.60;;;;;;;;;;5095253;28;20210;-82
2020/12/16 04:21:23;;;;;;;16.50;11.27;;;;;;;;;;5094829;28;20539;-81
2020/12/16 04:23:49;;;;;;;26.97;11.67;;;;;;;;;;5093857;28;20221;-81
2020/12/16 04:26:16;;;;;;;20.67;11.53;;;;;;;;;;5094421;28;20233;-81
2020/12/16 04:28:42;;;;;;;21.57;12.13;;;;;;;;;;5094972;28;20226;-81
2020/12/16 04:31:09;;;;;;;20.73;12.03;;;;;;;;;;5094889;28;20226;-83
2020/12/16 04:33:36;;;;;;;46.50;16.88;;;;;;;;;;5093312;28;20840;-82
2020/12/16 04:36:02;;;;;;;25.63;13.70;;;;;;;;;;5094775;28;20240;-81
2020/12/16 04:38:28;;;;;;;21.10;12.70;;;;;;;;;;5094758;28;20490;-82
2020/12/16 04:40:55;;;;;;;23.17;12.80;;;;;;;;;;5094434;28;20232;-80
2020/12/16 04:43:22;;;;;;;21.27;12.33;;;;;;;;;;5094533;28;20526;-81
2020/12/16 04:45:49;;;;;;;19.30;11.47;;;;;;;;;;5094454;28;20559;-82
2020/12/16 04:48:16;;;;;;;20.57;11.43;;;;;;;;;;5093535;28;20217;-81
2020/12/16 04:50:43;;;;;;;18.70;11.60;;;;;;;;;;5094448;28;20237;-81
2020/12/16 04:53:10;;;;;;;21.03;11.77;;;;;;;;;;5094721;28;20241;-81
2020/12/16 04:55:36;;;;;;;20.83;12.10;;;;;;;;;;5094685;28;20529;-80
2020/12/16 04:58:03;;;;;;;20.17;11.17;;;;;;;;;;5094623;28;20249;-80
2020/12/16 05:00:31;;;;;;;20.90;11.37;;;;;;;;;;5094327;28;20233;-80
2020/12/16 05:02:58;;;;;;;19.30;11.03;;;;;;;;;;5094519;28;20229;-81
2020/12/16 05:05:24;;;;;;;17.20;11.20;;;;;;;;;;5093920;28;20260;-81
2020/12/16 05:07:51;;;;;;;16.80;10.73;;;;;;;;;;5094141;28;20229;-81
2020/12/16 05:10:29;;;;;;;15.73;10.77;;;;;;;;;;5094297;28;20269;-81
2020/12/16 05:13:01;;;;;;;16.50;10.07;;;;;;;;;;5094468;28;20212;-81
2020/12/16 05:15:27;;;;;;;17.43;10.50;;;;;;;;;;5094329;28;20240;-81
2020/12/16 05:18:11;;;;;;;16.80;10.50;;;;;;;;;;5094976;28;20236;-81
2020/12/16 05:20:39;;;;;;;17.73;10.93;;;;;;;;;;5098316;28;20237;-81
2020/12/16 05:23:07;;;;;;;17.73;11.20;;;;;;;;;;5098054;28;20217;-80
2020/12/16 05:25:33;;;;;;;22.17;11.90;;;;;;;;;;5097885;28;20891;-81
2020/12/16 05:28:00;;;;;;;22.57;12.27;;;;;;;;;;5098062;28;20221;-80
2020/12/16 05:30:26;;;;;;;21.33;12.27;;;;;;;;;;5097616;28;20205;-81
2020/12/16 05:32:52;;;;;;;20.23;11.37;;;;;;;;;;5096210;28;20251;-80
2020/12/16 05:35:20;;;;;;;21.20;11.13;;;;;;;;;;5097554;28;20225;-80
2020/12/16 05:37:47;;;;;;;18.47;11.90;;;;;;;;;;5097846;28;20201;-81
2020/12/16 05:40:14;;;;;;;18.13;11.30;;;;;;;;;;5097567;28;20206;-80
2020/12/16 05:42:41;;;;;;;20.00;11.90;;;;;;;;;;5097547;28;20210;-80
2020/12/16 05:45:09;;;;;;;20.73;11.70;;;;;;;;;;5097288;28;20611;-81
2020/12/16 05:47:39;;;;;;;18.60;11.57;;;;;;;;;;5097101;28;20543;-81
2020/12/16 05:50:14;;;;;;;21.50;11.77;;;;;;;;;;5097220;28;20502;-81
2020/12/16 05:52:40;;;;;;;22.03;12.17;;;;;;;;;;5097243;28;20538;-80
2020/12/16 05:55:07;;;;;;;18.17;11.23;;;;;;;;;;5097138;28;20237;-81
2020/12/16 05:57:33;;;;;;;19.30;11.63;;;;;;;;;;5097536;28;20198;-81
2020/12/16 06:00:01;;;;;;;17.90;11.17;;;;;;;;;;5097128;28;20229;-80
2020/12/16 06:02:33;;;;;;;18.70;11.20;;;;;;;;;;5097496;28;20614;-81
2020/12/16 06:04:59;;;;;;;25.50;13.37;;;;;;;;;;5097159;28;20550;-81
2020/12/16 06:07:25;;;;;;;26.13;12.90;;;;;;;;;;5097403;28;20234;-80
2020/12/16 06:09:52;;;;;;;22.20;11.77;;;;;;;;;;5097118;28;20235;-80
2020/12/16 06:12:19;;;;;;;21.50;13.13;;;;;;;;;;5096656;28;20222;-80
2020/12/16 06:14:48;;;;;;;18.73;12.17;;;;;;;;;;5096947;28;20279;-79
2020/12/16 06:17:15;;;;;;;22.77;12.50;;;;;;;;;;5097066;28;20206;-80
2020/12/16 06:19:42;;;;;;;22.30;12.20;;;;;;;;;;5095688;28;20251;-80
2020/12/16 06:22:09;;;;;;;19.60;11.93;;;;;;;;;;5096808;28;20210;-82
2020/12/16 06:24:42;;;;;;;17.33;10.90;;;;;;;;;;5096954;28;20657;-81
2020/12/16 06:27:09;;;;;;;21.30;11.60;;;;;;;;;;5096950;28;20514;-81
2020/12/16 06:29:38;;;;;;;24.13;11.30;;;;;;;;;;5096887;28;20587;-82
2020/12/16 06:32:06;;;;;;;20.10;12.97;;;;;;;;;;5096678;28;20610;-82
2020/12/16 06:34:34;;;;;;;25.43;13.00;;;;;;;;;;5096639;28;20210;-82
2020/12/16 06:37:01;;;;;;;23.90;13.30;;;;;;;;;;5096723;28;20615;-82
2020/12/16 06:39:28;;;;;;;23.27;13.03;;;;;;;;;;5096290;28;20550;-82
2020/12/16 06:41:56;;;;;;;28.63;14.30;;;;;;;;;;5096453;28;20225;-81
2020/12/16 06:44:22;;;;;;;22.83;13.03;;;;;;;;;;5096270;28;20213;-81
2020/12/16 06:46:49;;;;;;;25.83;15.47;;;;;;;;;;5095091;28;20194;-81
2020/12/16 06:49:41;;;;;;;28.67;16.50;;;;;;;;;;5096231;28;20267;-81
2020/12/16 06:52:11;;;;;;;28.00;15.13;;;;;;;;;;5080969;28;20240;-79
2020/12/16 06:54:41;;;;;;;26.47;14.73;;;;;;;;;;5096414;28;20237;-80
2020/12/16 06:57:12;;;;;;;24.47;14.50;;;;;;;;;;5096279;28;20212;-80
2020/12/16 06:59:48;;;;;;;22.00;12.57;;;;;;;;;;5096096;28;20658;-81
2020/12/16 07:02:15;;;;;;;25.20;13.17;;;;;;;;;;5096408;28;20495;-81
2020/12/16 07:04:41;;;;;;;21.47;12.50;;;;;;;;;;5096050;28;20209;-80
2020/12/16 07:07:28;;;;;;;25.83;13.27;;;;;;;;;;5095185;28;20197;-80
2020/12/16 07:09:54;;;;;;;22.73;12.90;;;;;;;;;;5095326;28;20234;-81
2020/12/16 07:12:28;;;;;;;22.97;13.40;;;;;;;;;;5096191;28;20537;-78
2020/12/16 07:14:54;;;;;;;22.97;12.17;;;;;;;;;;5096071;28;20229;-79
2020/12/16 07:17:21;;;;;;;23.30;12.97;;;;;;;;;;5096162;28;20236;-78
2020/12/16 07:19:47;;;;;;;37.07;14.83;;;;;;;;;;5095567;28;21011;-81
2020/12/16 07:22:15;;;;;;;25.00;12.70;;;;;;;;;;5095866;28;20229;-79
2020/12/16 07:24:46;;;;;;;25.67;13.70;;;;;;;;;;5095455;28;20241;-80
2020/12/16 07:27:14;;;;;;;27.13;13.20;;;;;;;;;;5095942;28;20233;-81
2020/12/16 07:29:52;;;;;;;34.90;14.57;;;;;;;;;;5095619;28;20208;-80
2020/12/16 07:32:20;;;;;;;28.90;13.40;;;;;;;;;;5095481;28;20541;-80
2020/12/16 07:34:48;;;;;;;33.60;14.00;;;;;;;;;;5095509;28;20229;-81
2020/12/16 07:37:14;;;;;;;24.67;12.83;;;;;;;;;;5095883;28;20233;-81
2020/12/16 07:39:45;;;;;;;30.03;13.27;;;;;;;;;;5095152;28;20295;-80
2020/12/16 07:42:11;;;;;;;28.97;13.40;;;;;;;;;;5095215;28;20244;-81
2020/12/16 07:44:43;;;;;;;28.27;12.93;;;;;;;;;;5095198;28;20279;-83
2020/12/16 07:47:09;;;;;;;26.57;12.37;;;;;;;;;;5095359;28;20622;-81
2020/12/16 07:49:38;;;;;;;28.83;13.23;;;;;;;;;;5095160;28;20614;-79
2020/12/16 07:52:05;;;;;;;29.13;14.13;;;;;;;;;;5095567;28;20267;-81
2020/12/16 07:54:31;;;;;;;29.73;13.80;;;;;;;;;;5094807;28;20229;-81
2020/12/16 07:56:57;;;;;;;25.20;13.60;;;;;;;;;;5095289;28;20240;-81
2020/12/16 07:59:26;;;;;;;27.50;13.40;;;;;;;;;;5095235;28;20233;-80
2020/12/16 08:01:53;;;;;;;26.57;14.03;;;;;;;;;;5095436;28;20202;-83
2020/12/16 08:04:19;;;;;;;31.20;14.03;;;;;;;;;;5094547;28;20240;-79
2020/12/16 08:06:45;;;;;;;29.27;13.80;;;;;;;;;;5093999;28;20294;-81
2020/12/16 08:09:19;;;;;;;22.60;12.93;;;;;;;;;;5095135;28;20198;-82
2020/12/16 08:11:46;;;;;;;25.30;13.20;;;;;;;;;;5095366;28;20233;-82
2020/12/16 08:14:12;;;;;;;25.33;12.70;;;;;;;;;;5094744;28;20281;-81
2020/12/16 08:16:38;;;;;;;26.20;13.23;;;;;;;;;;5095165;28;20225;-81
2020/12/16 08:19:04;;;;;;;25.67;13.40;;;;;;;;;;5094840;28;20240;-81
2020/12/16 08:21:30;;;;;;;20.97;12.20;;;;;;;;;;5095097;28;20240;-81
2020/12/16 08:23:56;;;;;;;19.97;12.00;;;;;;;;;;5094859;28;20229;-79
2020/12/16 08:26:24;;;;;;;23.53;12.43;;;;;;;;;;5094820;28;20249;-80
2020/12/16 08:28:50;;;;;;;24.23;13.37;;;;;;;;;;5094994;28;20599;-79
2020/12/16 08:31:18;;;;;;;23.87;12.97;;;;;;;;;;5095079;28;20504;-80
2020/12/16 08:33:44;;;;;;;20.50;11.60;;;;;;;;;;5094523;28;20621;-78
2020/12/16 08:36:15;;;;;;;22.53;12.63;;;;;;;;;;5094771;28;20226;-79
2020/12/16 08:38:43;;;;;;;27.07;12.80;;;;;;;;;;5094862;28;20210;-79
2020/12/16 08:41:10;;;;;;;22.57;12.97;;;;;;;;;;5094347;28;20241;-80
2020/12/16 08:43:37;;;;;;;24.93;13.07;;;;;;;;;;5094812;28;20201;-79
2020/12/16 08:46:05;;;;;;;23.90;12.93;;;;;;;;;;5094061;28;20240;-79
2020/12/16 08:48:39;;;;;;;22.23;12.03;;;;;;;;;;5094704;28;20229;-80
2020/12/16 08:51:06;;;;;;;24.00;12.57;;;;;;;;;;5094890;28;20246;-79
2020/12/16 08:53:42;;;;;;;21.87;12.60;;;;;;;;;;5096366;28;20206;-81
2020/12/16 08:56:17;;;;;;;24.87;13.13;;;;;;;;;;5098442;28;20225;-80
2020/12/16 08:58:44;;;;;;;28.90;14.07;;;;;;;;;;5098565;28;20535;-78
2020/12/16 09:01:12;;;;;;;26.67;12.93;;;;;;;;;;5098701;28;20213;-79
2020/12/16 09:03:41;;;;;;;30.00;13.63;;;;;;;;;;5098633;28;20244;-79
2020/12/16 09:06:07;;;;;;;25.50;13.53;;;;;;;;;;5098323;28;20249;-79
2020/12/16 09:08:33;;;;;;;28.47;14.27;;;;;;;;;;5098594;28;20232;-79
2020/12/16 09:10:59;;;;;;;26.23;13.33;;;;;;;;;;5098346;28;20225;-79
2020/12/16 09:13:29;;;;;;;23.73;13.37;;;;;;;;;;5098452;28;20229;-79
2020/12/16 09:15:56;;;;;;;22.97;13.63;;;;;;;;;;5098353;28;20346;-79
2020/12/16 09:18:26;;;;;;;24.03;13.03;;;;;;;;;;5098006;28;20233;-79
2020/12/16 09:20:52;;;;;;;24.57;13.07;;;;;;;;;;5098157;28;20613;-80
2020/12/16 09:23:22;;;;;;;24.70;12.87;;;;;;;;;;5098215;28;20205;-80
2020/12/16 09:25:51;;;;;;;22.03;12.77;;;;;;;;;;5097848;28;20261;-80
2020/12/16 09:28:17;;;;;;;20.73;12.13;;;;;;;;;;5098201;28;20234;-78
2020/12/16 09:30:44;;;;;;;24.60;13.07;;;;;;;;;;5098093;28;20614;-78
2020/12/16 09:33:11;;;;;;;45.60;14.70;;;;;;;;;;5097672;28;20264;-80
2020/12/16 09:35:38;;;;;;;25.07;14.00;;;;;;;;;;5098155;28;20233;-77
2020/12/16 09:38:17;;;;;;;22.37;13.67;;;;;;;;;;5096694;28;20201;-79
2020/12/16 09:40:43;;;;;;;20.73;13.37;;;;;;;;;;5097548;28;20244;-79
2020/12/16 09:43:10;;;;;;;18.57;12.53;;;;;;;;;;5097846;28;20229;-80
2020/12/16 09:45:37;;;;;;;21.23;13.27;;;;;;;;;;5097724;28;20246;-79
2020/12/16 09:48:03;;;;;;;23.80;13.23;;;;;;;;;;5097253;28;20552;-80
2020/12/16 09:50:32;;;;;;;18.40;11.87;;;;;;;;;;5097543;28;20198;-81
2020/12/16 09:52:59;;;;;;;19.97;11.70;;;;;;;;;;5097798;28;20233;-84
2020/12/16 09:55:26;;;;;;;16.30;11.80;;;;;;;;;;5097596;28;20535;-86
2020/12/16 09:57:59;;;;;;;16.80;12.13;;;;;;;;;;5097604;28;20499;-78
2020/12/16 10:00:25;;;;;;;17.03;11.37;;;;;;;;;;5097050;28;20504;-80
2020/12/16 10:02:55;;;;;;;16.23;11.60;;;;;;;;;;5097462;28;20239;-82
2020/12/16 10:05:21;;;;;;;15.00;10.87;;;;;;;;;;5097043;28;20618;-82
2020/12/16 10:07:48;;;;;;;16.43;11.37;;;;;;;;;;5097306;28;20245;-82
2020/12/16 10:10:14;;;;;;;12.67;10.60;;;;;;;;;;5097087;28;20242;-81
2020/12/16 10:12:40;;;;;;;15.43;11.30;;;;;;;;;;5097258;28;20206;-81
2020/12/16 10:15:06;;;;;;;15.90;11.33;;;;;;;;;;5097275;28;20233;-81
2020/12/16 10:17:32;;;;;;;14.27;11.17;;;;;;;;;;5097403;28;20233;-80
2020/12/16 10:20:01;;;;;;;17.63;10.47;;;;;;;;;;5097096;28;20249;-80
2020/12/16 10:22:27;;;;;;;13.17;10.77;;;;;;;;;;5097240;28;20240;-80
2020/12/16 10:24:54;;;;;;;14.00;11.27;;;;;;;;;;5096814;28;20225;-81
2020/12/16 10:27:20;;;;;;;17.20;10.80;;;;;;;;;;5097049;28;20240;-82
2020/12/16 10:29:46;;;;;;;13.23;10.40;;;;;;;;;;5096527;28;20544;-80
2020/12/16 10:32:13;;;;;;;13.73;10.10;;;;;;;;;;5096765;28;20907;-79
2020/12/16 10:34:39;;;;;;;13.80;10.60;;;;;;;;;;5096448;28;20232;-79
2020/12/16 10:37:05;;;;;;;14.02;11.35;;;;;;;;;;5096087;28;20884;-81
2020/12/16 10:39:31;;;;;;;14.60;9.87;;;;;;;;;;5096595;28;20226;-82
2020/12/16 10:41:58;;;;;;;11.17;10.07;;;;;;;;;;5096759;28;20233;-81
2020/12/16 10:44:25;;;;;;;10.73;9.03;;;;;;;;;;5095898;28;20542;-81
2020/12/16 10:46:54;;;;;;;13.00;10.10;;;;;;;;;;5096061;28;20288;-81
2020/12/16 10:49:20;;;;;;;10.77;8.80;;;;;;;;;;5096533;28;20236;-78
2020/12/16 10:51:46;;;;;;;11.43;8.63;;;;;;;;;;5096706;28;20194;-86
2020/12/16 10:54:12;;;;;;;9.50;8.60;;;;;;;;;;5096120;28;20234;-81
2020/12/16 10:56:39;;;;;;;9.60;8.70;;;;;;;;;;5096566;28;20518;-80
2020/12/16 10:59:05;;;;;;;10.27;8.43;;;;;;;;;;5096175;28;20255;-82
2020/12/16 11:01:34;;;;;;;9.03;8.13;;;;;;;;;;5094998;28;20190;-83
2020/12/16 11:04:00;;;;;;;9.70;8.70;;;;;;;;;;5095990;28;20230;-82
2020/12/16 11:06:26;;;;;;;9.30;8.23;;;;;;;;;;5096087;28;20249;-82
2020/12/16 11:08:52;;;;;;;10.10;9.07;;;;;;;;;;5094401;28;20198;-82
2020/12/16 11:11:18;;;;;;;11.90;9.43;;;;;;;;;;5095914;28;20545;-82
2020/12/16 11:13:45;;;;;;;9.43;8.40;;;;;;;;;;5096197;28;20241;-80
2020/12/16 11:16:11;;;;;;;12.83;8.83;;;;;;;;;;5095024;28;20236;-79
2020/12/16 11:18:38;;;;;;;9.33;8.37;;;;;;;;;;5096031;28;20233;-83
2020/12/16 11:21:04;;;;;;;9.67;8.77;;;;;;;;;;5095715;28;20494;-83
2020/12/16 11:23:30;;;;;;;9.27;8.37;;;;;;;;;;5095920;28;20244;-84
2020/12/16 11:25:56;;;;;;;9.57;8.30;;;;;;;;;;5090321;28;20254;-81
2020/12/16 11:28:22;;;;;;;9.43;8.50;;;;;;;;;;5075472;28;20230;-81
2020/12/16 11:30:48;;;;;;;9.87;8.53;;;;;;;;;;5090000;28;20233;-81
2020/12/16 11:33:14;;;;;;;8.87;8.00;;;;;;;;;;5094748;28;20667;-90
2020/12/16 11:35:41;;;;;;;8.93;8.13;;;;;;;;;;5095751;28;20230;-82
2020/12/16 11:38:07;;;;;;;10.07;8.23;;;;;;;;;;5095726;28;20237;-83
2020/12/16 11:40:33;;;;;;;11.87;8.47;;;;;;;;;;5095910;28;20232;-81
2020/12/16 11:42:59;;;;;;;12.80;8.60;;;;;;;;;;5095595;28;20645;-83
2020/12/16 11:45:25;;;;;;;9.50;8.67;;;;;;;;;;5095121;28;20240;-81
2020/12/16 11:47:52;;;;;;;10.50;9.40;;;;;;;;;;5095535;28;20540;-81
2020/12/16 11:50:18;;;;;;;10.07;9.07;;;;;;;;;;5094808;28;20240;-80
2020/12/16 11:52:45;;;;;;;11.13;9.17;;;;;;;;;;5095478;28;20225;-80
2020/12/16 11:55:11;;;;;;;10.07;8.90;;;;;;;;;;5094956;28;20229;-80
2020/12/16 11:57:40;;;;;;;10.13;9.13;;;;;;;;;;5095286;28;20543;-81
2020/12/16 12:00:06;;;;;;;13.37;9.93;;;;;;;;;;5075035;28;20260;-81
2020/12/16 12:02:32;;;;;;;11.30;10.17;;;;;;;;;;5075079;28;20215;-81
2020/12/16 12:04:58;;;;;;;9.90;9.00;;;;;;;;;;5074380;28;20234;-80
2020/12/16 12:07:24;;;;;;;10.67;9.67;;;;;;;;;;5074437;28;20551;-80
2020/12/16 12:09:51;;;;;;;10.73;9.60;;;;;;;;;;5074913;28;20233;-82
2020/12/16 12:12:17;;;;;;;10.23;9.43;;;;;;;;;;5080792;28;20201;-79
2020/12/16 12:14:43;;;;;;;10.53;9.50;;;;;;;;;;5093990;28;20520;-79
2020/12/16 12:17:09;;;;;;;11.27;9.67;;;;;;;;;;5095371;28;20222;-78
2020/12/16 12:19:40;;;;;;;10.70;9.70;;;;;;;;;;5094657;28;20229;-78
2020/12/16 12:22:07;;;;;;;12.53;10.10;;;;;;;;;;5095036;28;20206;-79
2020/12/16 12:24:33;;;;;;;11.27;10.17;;;;;;;;;;5094835;28;20607;-79
2020/12/16 12:27:00;;;;;;;11.13;9.93;;;;;;;;;;5095016;28;20256;-77
2020/12/16 12:29:26;;;;;;;13.73;9.97;;;;;;;;;;5098226;28;20221;-79
2020/12/16 12:31:52;;;;;;;11.97;10.17;;;;;;;;;;5098355;28;20585;-80
2020/12/16 12:34:18;;;;;;;11.17;9.97;;;;;;;;;;5098128;28;20252;-78
2020/12/16 12:36:44;;;;;;;12.10;9.87;;;;;;;;;;5095866;28;20325;-79
2020/12/16 12:39:10;;;;;;;10.07;9.07;;;;;;;;;;5098939;28;20666;-80
2020/12/16 12:41:36;;;;;;;9.67;8.67;;;;;;;;;;5099103;28;20621;-78
2020/12/16 12:44:03;;;;;;;9.70;8.57;;;;;;;;;;5098466;28;20479;-80
2020/12/16 12:46:29;;;;;;;9.60;8.60;;;;;;;;;;5098294;28;20245;-80
2020/12/16 12:48:55;;;;;;;9.63;8.57;;;;;;;;;;5098137;28;20577;-81
2020/12/16 12:51:23;;;;;;;11.53;9.83;;;;;;;;;;5098221;28;20618;-80
2020/12/16 12:53:49;;;;;;;13.37;10.00;;;;;;;;;;5098558;28;20209;-81
2020/12/16 12:56:17;;;;;;;12.10;9.77;;;;;;;;;;5098084;28;20495;-79
2020/12/16 12:58:43;;;;;;;10.33;9.33;;;;;;;;;;5098741;28;20570;-79
2020/12/16 13:01:11;;;;;;;10.50;9.50;;;;;;;;;;5098271;28;20629;-78
2020/12/16 13:03:37;;;;;;;9.73;8.83;;;;;;;;;;5098029;28;20236;-79
2020/12/16 13:06:03;;;;;;;9.97;9.07;;;;;;;;;;5097167;28;20229;-79
2020/12/16 13:08:29;;;;;;;9.70;8.80;;;;;;;;;;5096326;28;20229;-80
2020/12/16 13:10:55;;;;;;;9.63;8.73;;;;;;;;;;5097140;28;20229;-81
2020/12/16 13:13:24;;;;;;;10.00;9.00;;;;;;;;;;5097777;28;20229;-81
2020/12/16 13:15:50;;;;;;;10.90;8.73;;;;;;;;;;5097343;28;20240;-78
2020/12/16 13:18:17;;;;;;;9.87;8.93;;;;;;;;;;5093555;28;20599;-81
2020/12/16 13:20:43;;;;;;;9.27;8.37;;;;;;;;;;5077198;28;20579;-80
2020/12/16 13:23:09;;;;;;;10.93;9.30;;;;;;;;;;5077848;28;20234;-81
2020/12/16 13:25:35;;;;;;;9.60;8.80;;;;;;;;;;5077372;28;20230;-83
2020/12/16 13:28:02;;;;;;;10.07;8.47;;;;;;;;;;5077611;28;20579;-83
2020/12/16 13:30:28;;;;;;;9.77;8.77;;;;;;;;;;5077206;28;20238;-85
2020/12/16 13:32:54;;;;;;;9.63;8.63;;;;;;;;;;5075907;28;20250;-85
2020/12/16 13:35:21;;;;;;;9.00;8.17;;;;;;;;;;5077675;28;20221;-84
2020/12/16 13:37:48;;;;;;;10.27;9.27;;;;;;;;;;5077670;28;20199;-85
2020/12/16 13:40:14;;;;;;;9.60;8.50;;;;;;;;;;5076657;28;20234;-84
2020/12/16 13:42:40;;;;;;;9.63;8.57;;;;;;;;;;5076650;28;20514;-84
2020/12/16 13:45:06;;;;;;;9.60;8.43;;;;;;;;;;5077377;28;20241;-85
2020/12/16 13:47:33;;;;;;;9.87;8.90;;;;;;;;;;5077078;28;20242;-86
2020/12/16 13:49:59;;;;;;;9.40;8.40;;;;;;;;;;5074901;28;20527;-86
2020/12/16 13:52:26;;;;;;;13.07;10.20;;;;;;;;;;5076741;28;20533;-86
2020/12/16 13:54:52;;;;;;;11.67;9.80;;;;;;;;;;5076632;28;20284;-85
2020/12/16 13:57:18;;;;;;;11.67;10.37;;;;;;;;;;5076648;28;20627;-85
2020/12/16 13:59:44;;;;;;;18.50;12.13;;;;;;;;;;5076553;28;20199;-86
2020/12/16 14:02:11;;;;;;;14.10;12.43;;;;;;;;;;5077029;28;20268;-86
2020/12/16 14:04:37;;;;;;;13.70;12.17;;;;;;;;;;5076479;28;20207;-88
2020/12/16 14:07:03;;;;;;;17.43;13.73;;;;;;;;;;5075734;28;20246;-84
2020/12/16 14:09:30;;;;;;;15.80;13.57;;;;;;;;;;5074883;28;20218;-86
2020/12/16 14:11:57;;;;;;;17.87;14.23;;;;;;;;;;5075645;28;20461;-86
2020/12/16 14:14:23;;;;;;;17.77;15.10;;;;;;;;;;5076476;28;20229;-85
2020/12/16 14:16:51;;;;;;;17.80;15.43;;;;;;;;;;5076716;28;20226;-84
2020/12/16 14:19:17;;;;;;;17.20;15.40;;;;;;;;;;5076357;28;20241;-85